Time;durP1;ratioP1;P1;durP2;ratioP2;P2;SDS_P1;SDS_P2;PMS_P1;PMS_P2;Temp;Humidity;BMP_temperature;BMP_pressure;BME280_temperature;BME280_humidity;BME280_pressure;Samples;Min_cycle;Max_cycle;Signal;HPM_P1;HPM_P2
2022/08/19 00:01:33;;;;;;;14.27;11.57;;;19.90;99.90;;;;;;5019318;28;20228;-51
2022/08/19 00:04:06;;;;;;;14.53;11.50;;;20.00;99.90;;;;;;5021883;28;20210;-50
2022/08/19 00:06:35;;;;;;;16.00;11.07;;;19.80;99.90;;;;;;5022655;28;20212;-51
2022/08/19 00:09:05;;;;;;;15.67;11.77;;;19.60;99.90;;;;;;5022625;28;20220;-49
2022/08/19 00:11:35;;;;;;;14.37;12.00;;;19.50;99.90;;;;;;5022428;28;20576;-49
2022/08/19 00:14:04;;;;;;;12.90;11.20;;;19.30;99.90;;;;;;5022720;28;20567;-51
2022/08/19 00:16:31;;;;;;;13.10;11.63;;;19.40;99.90;;;;;;5021754;28;20217;-51
2022/08/19 00:18:58;;;;;;;12.17;10.97;;;19.50;99.90;;;;;;5022520;28;20731;-50
2022/08/19 00:21:29;;;;;;;11.43;10.20;;;19.60;99.90;;;;;;5021197;28;20713;-51
2022/08/19 00:23:58;;;;;;;11.47;10.33;;;19.60;99.90;;;;;;5022140;28;20553;-51
2022/08/19 00:26:27;;;;;;;12.87;11.47;;;19.70;99.90;;;;;;5022115;28;20208;-49
2022/08/19 00:28:54;;;;;;;12.17;10.40;;;19.60;99.90;;;;;;5022201;28;20205;-51
2022/08/19 00:31:21;;;;;;;12.60;10.50;;;19.60;99.90;;;;;;5020216;28;20300;-50
2022/08/19 00:33:50;;;;;;;13.03;10.73;;;19.60;99.90;;;;;;5018492;28;20244;-51
2022/08/19 00:36:17;;;;;;;12.67;11.37;;;19.50;99.90;;;;;;5021126;28;20231;-52
2022/08/19 00:38:44;;;;;;;12.57;10.80;;;19.40;99.90;;;;;;5021966;28;20201;-51
2022/08/19 00:41:17;;;;;;;12.80;11.30;;;19.40;99.90;;;;;;5020625;28;20204;-51
2022/08/19 00:44:16;;;;;;;12.23;10.70;;;19.40;99.90;;;;;;5021793;28;20209;-51
2022/08/19 00:46:46;;;;;;;12.23;10.93;;;19.30;99.90;;;;;;5016623;28;20216;-49
2022/08/19 00:49:45;;;;;;;14.37;11.50;;;19.20;99.90;;;;;;5022657;28;20215;-50
2022/08/19 00:52:16;;;;;;;18.40;12.13;;;19.30;99.90;;;;;;5019846;28;20263;-50
2022/08/19 00:54:45;;;;;;;13.40;11.77;;;19.30;99.90;;;;;;5021450;28;20628;-51
2022/08/19 00:57:23;;;;;;;14.17;11.87;;;19.30;99.90;;;;;;5020478;28;20221;-51
2022/08/19 00:59:54;;;;;;;12.70;11.40;;;19.20;99.90;;;;;;5017711;28;20205;-51
2022/08/19 01:02:29;;;;;;;15.03;12.23;;;19.20;99.90;;;;;;5020873;28;20607;-50
2022/08/19 01:04:57;;;;;;;14.00;11.60;;;19.10;99.90;;;;;;5018589;28;20198;-51
2022/08/19 01:07:24;;;;;;;14.50;12.40;;;18.90;99.90;;;;;;5015036;28;20220;-51
2022/08/19 01:09:52;;;;;;;17.20;13.20;;;18.80;99.90;;;;;;5018248;28;20240;-50
2022/08/19 01:12:20;;;;;;;17.07;14.10;;;18.70;99.90;;;;;;5021306;28;20648;-51
2022/08/19 01:14:47;;;;;;;16.67;13.23;;;18.60;99.90;;;;;;5021100;28;20201;-50
2022/08/19 01:17:15;;;;;;;16.60;13.17;;;18.50;99.90;;;;;;5020470;28;20303;-51
2022/08/19 01:19:45;;;;;;;18.00;12.60;;;18.40;99.90;;;;;;5018686;28;20794;-51
2022/08/19 01:22:21;;;;;;;16.40;12.53;;;18.50;99.90;;;;;;5021856;28;20284;-51
2022/08/19 01:24:54;;;;;;;17.93;12.53;;;18.70;99.90;;;;;;5021059;28;20248;-50
2022/08/19 01:27:22;;;;;;;15.27;12.80;;;18.70;99.90;;;;;;5018273;28;20240;-50
2022/08/19 01:29:50;;;;;;;17.07;12.43;;;18.90;99.90;;;;;;5020762;28;20719;-51
2022/08/19 01:32:19;;;;;;;16.93;13.53;;;19.00;99.90;;;;;;5020207;28;20727;-51
2022/08/19 01:35:01;;;;;;;15.83;13.17;;;19.10;99.90;;;;;;5020858;28;20565;-50
2022/08/19 01:37:30;;;;;;;17.03;12.67;;;19.10;99.90;;;;;;5018408;28;20346;-51
2022/08/19 01:39:57;;;;;;;18.93;14.10;;;19.10;99.90;;;;;;5021339;28;20300;-50
2022/08/19 01:42:24;;;;;;;18.60;15.63;;;19.20;99.90;;;;;;5021291;28;20239;-50
2022/08/19 01:44:56;;;;;;;17.90;14.17;;;19.20;99.90;;;;;;5020562;28;20240;-50
2022/08/19 01:47:23;;;;;;;16.70;13.83;;;19.30;99.90;;;;;;5018819;28;20213;-49
2022/08/19 01:49:50;;;;;;;17.43;14.53;;;19.30;99.90;;;;;;5020947;28;20626;-51
2022/08/19 01:52:16;;;;;;;21.67;14.80;;;19.20;99.90;;;;;;5018690;28;20208;-50
2022/08/19 01:54:43;;;;;;;18.47;14.97;;;19.20;99.90;;;;;;5019132;28;20703;-50
2022/08/19 01:57:12;;;;;;;19.43;15.60;;;19.10;99.90;;;;;;5019825;28;20342;-50
2022/08/19 01:59:42;;;;;;;20.03;14.83;;;19.10;99.90;;;;;;5020547;28;20822;-51
2022/08/19 02:02:09;;;;;;;19.20;15.10;;;19.00;99.90;;;;;;5019546;28;20803;-49
2022/08/19 02:04:37;;;;;;;17.57;14.73;;;18.80;99.90;;;;;;5020305;28;20255;-51
2022/08/19 02:07:05;;;;;;;18.10;15.23;;;18.70;99.90;;;;;;5019568;28;20213;-50
2022/08/19 02:09:32;;;;;;;19.30;14.70;;;18.70;99.90;;;;;;5016131;28;20254;-50
2022/08/19 02:11:59;;;;;;;19.00;15.57;;;18.70;99.90;;;;;;5020032;28;20212;-51
2022/08/19 02:14:26;;;;;;;21.00;15.97;;;18.80;99.90;;;;;;5017726;28;20212;-50
2022/08/19 02:16:53;;;;;;;20.80;15.90;;;18.70;99.90;;;;;;5019159;28;20217;-51
2022/08/19 02:19:20;;;;;;;18.27;15.63;;;18.60;99.90;;;;;;5016867;28;20627;-50
2022/08/19 02:21:47;;;;;;;20.47;15.30;;;18.70;99.90;;;;;;5020003;28;20245;-51
2022/08/19 02:24:14;;;;;;;20.77;15.27;;;18.80;99.90;;;;;;5019976;28;20257;-51
2022/08/19 02:26:41;;;;;;;21.40;17.43;;;18.80;99.90;;;;;;5020165;28;20213;-51
2022/08/19 02:29:07;;;;;;;22.93;17.57;;;18.90;99.90;;;;;;5019376;28;20208;-50
2022/08/19 02:31:34;;;;;;;23.17;17.67;;;18.90;99.90;;;;;;5019728;28;20201;-52
2022/08/19 02:34:01;;;;;;;22.07;16.30;;;19.00;99.90;;;;;;5019550;28;20619;-50
2022/08/19 02:36:28;;;;;;;19.93;15.70;;;18.90;99.90;;;;;;5019556;28;20229;-51
2022/08/19 02:38:56;;;;;;;22.10;16.77;;;19.00;99.90;;;;;;5020492;28;20212;-51
2022/08/19 02:41:28;;;;;;;19.33;15.40;;;19.00;99.90;;;;;;5019809;28;20602;-49
2022/08/19 02:43:57;;;;;;;19.10;15.43;;;18.90;99.90;;;;;;5017398;28;20204;-51
2022/08/19 02:46:46;;;;;;;18.97;13.93;;;18.90;99.90;;;;;;5019183;28;20210;-50
2022/08/19 02:49:16;;;;;;;19.60;14.10;;;18.70;99.90;;;;;;5019546;28;20213;-52
2022/08/19 02:51:45;;;;;;;16.70;14.13;;;18.70;99.90;;;;;;5016270;28;20208;-51
2022/08/19 02:54:13;;;;;;;19.03;14.37;;;18.70;99.90;;;;;;5019345;28;20646;-50
2022/08/19 02:56:41;;;;;;;18.67;14.80;;;18.70;99.90;;;;;;5019293;28;20682;-51
2022/08/19 02:59:10;;;;;;;17.50;14.07;;;18.60;99.90;;;;;;5019783;28;20207;-51
2022/08/19 03:01:40;;;;;;;22.00;15.17;;;18.80;99.90;;;;;;5015751;28;20241;-51
2022/08/19 03:04:09;;;;;;;20.23;16.33;;;18.70;99.90;;;;;;5019186;28;20201;-51
2022/08/19 03:06:38;;;;;;;18.57;15.07;;;18.50;99.90;;;;;;5019348;28;20566;-51
2022/08/19 03:09:05;;;;;;;17.90;15.30;;;18.50;99.90;;;;;;5018289;28;20263;-51
2022/08/19 03:11:32;;;;;;;18.30;15.67;;;18.60;99.90;;;;;;5017236;28;20663;-51
2022/08/19 03:14:00;;;;;;;19.97;16.13;;;18.50;99.90;;;;;;5016387;28;20681;-51
2022/08/19 03:16:28;;;;;;;23.50;15.40;;;18.60;99.90;;;;;;5022333;28;20248;-50
2022/08/19 03:18:59;;;;;;;19.60;15.30;;;18.70;99.90;;;;;;5025854;28;20259;-51
2022/08/19 03:21:29;;;;;;;17.30;14.50;;;18.70;99.90;;;;;;5024056;28;20684;-50
2022/08/19 03:23:58;;;;;;;17.20;14.50;;;18.70;99.90;;;;;;5025947;28;20197;-50
2022/08/19 03:26:25;;;;;;;18.77;14.13;;;18.80;99.90;;;;;;5025001;28;20247;-50
2022/08/19 03:28:52;;;;;;;18.73;15.83;;;18.90;99.90;;;;;;5025941;28;20207;-49
2022/08/19 03:31:26;;;;;;;20.43;15.43;;;18.60;99.90;;;;;;5025288;28;20554;-49
2022/08/19 03:34:17;;;;;;;18.37;14.67;;;18.40;99.90;;;;;;5025826;28;20290;-50
2022/08/19 03:36:45;;;;;;;19.80;15.57;;;18.30;99.90;;;;;;5025195;28;20303;-49
2022/08/19 03:39:13;;;;;;;19.87;14.97;;;18.20;99.90;;;;;;5025158;28;20209;-51
2022/08/19 03:41:43;;;;;;;19.97;15.43;;;18.30;99.90;;;;;;5024787;28;20242;-51
2022/08/19 03:44:13;;;;;;;18.00;14.73;;;18.40;99.90;;;;;;5024783;28;20677;-49
2022/08/19 03:46:45;;;;;;;18.13;14.93;;;18.50;99.90;;;;;;5025443;28;20209;-50
2022/08/19 03:49:12;;;;;;;22.20;14.93;;;18.60;99.90;;;;;;5024840;28;20208;-50
2022/08/19 03:51:42;;;;;;;20.83;15.67;;;18.50;99.90;;;;;;5021766;28;20219;-51
2022/08/19 03:54:13;;;;;;;16.90;14.63;;;18.50;99.90;;;;;;5025444;28;20232;-51
2022/08/19 03:56:42;;;;;;;17.33;14.67;;;18.50;99.90;;;;;;5022561;28;20689;-51
2022/08/19 03:59:13;;;;;;;21.67;16.20;;;18.40;99.90;;;;;;5025770;28;20201;-51
2022/08/19 04:01:40;;;;;;;19.83;15.60;;;18.30;99.90;;;;;;5023894;28;20236;-50
2022/08/19 04:04:08;;;;;;;20.67;16.73;;;18.40;99.90;;;;;;5019538;28;20204;-50
2022/08/19 04:06:38;;;;;;;18.97;15.43;;;18.50;99.90;;;;;;5023910;28;20284;-51
2022/08/19 04:09:09;;;;;;;20.10;15.83;;;18.40;99.90;;;;;;5025519;28;20736;-51
2022/08/19 04:11:41;;;;;;;22.33;15.60;;;18.50;99.90;;;;;;5026172;28;20687;-50
2022/08/19 04:14:20;;;;;;;22.20;15.50;;;18.50;99.90;;;;;;5026172;28;20203;-50
2022/08/19 04:16:48;;;;;;;23.70;16.37;;;18.40;99.90;;;;;;5024206;28;20223;-50
2022/08/19 04:19:17;;;;;;;21.83;15.90;;;18.50;99.90;;;;;;5024807;28;20200;-50
2022/08/19 04:21:46;;;;;;;21.53;16.87;;;18.40;99.90;;;;;;5024507;28;20204;-51
2022/08/19 04:24:14;;;;;;;23.33;17.23;;;18.50;99.90;;;;;;5025681;28;20234;-51
2022/08/19 04:26:41;;;;;;;25.30;18.43;;;18.50;99.90;;;;;;5023773;28;20227;-51
2022/08/19 04:29:15;;;;;;;26.20;18.57;;;18.50;99.90;;;;;;5018747;28;20297;-51
2022/08/19 04:31:44;;;;;;;24.47;19.00;;;18.60;99.90;;;;;;5021378;28;20249;-52
2022/08/19 04:34:13;;;;;;;30.87;20.77;;;18.50;99.90;;;;;;5022615;28;20290;-50
2022/08/19 04:36:42;;;;;;;26.03;18.23;;;18.50;99.90;;;;;;5021403;28;20239;-51
2022/08/19 04:39:13;;;;;;;32.07;20.63;;;18.50;99.90;;;;;;5020702;28;20651;-52
2022/08/19 04:44:26;;;;;;;26.43;19.77;;;18.50;99.90;;;;;;5020945;28;20245;-50
2022/08/19 04:46:53;;;;;;;32.27;22.23;;;18.40;99.90;;;;;;5021180;28;20722;-51
2022/08/19 04:49:22;;;;;;;30.23;20.70;;;18.40;99.90;;;;;;5021271;28;20730;-50
2022/08/19 04:51:51;;;;;;;30.10;21.23;;;18.40;99.90;;;;;;5021574;28;20800;-51
2022/08/19 04:54:22;;;;;;;33.30;22.50;;;18.40;99.90;;;;;;5021789;28;20328;-50
2022/08/19 04:57:08;;;;;;;35.97;25.77;;;18.40;99.90;;;;;;5020196;28;20715;-50
2022/08/19 04:59:37;;;;;;;35.73;23.87;;;18.10;99.90;;;;;;5022131;28;20234;-50
2022/08/19 05:02:04;;;;;;;37.97;23.67;;;18.10;99.90;;;;;;5020863;28;20277;-51
2022/08/19 05:04:33;;;;;;;36.17;25.30;;;18.20;99.90;;;;;;5016422;28;20260;-50
2022/08/19 05:07:00;;;;;;;34.60;25.47;;;18.20;99.90;;;;;;5021107;28;20568;-50
2022/08/19 05:09:29;;;;;;;35.97;25.17;;;18.10;99.90;;;;;;5020701;28;20247;-51
2022/08/19 05:12:17;;;;;;;37.70;26.07;;;18.00;99.90;;;;;;5021418;28;20278;-50
2022/08/19 05:14:47;;;;;;;38.57;24.73;;;18.10;99.90;;;;;;5019898;28;20617;-51
2022/08/19 05:17:14;;;;;;;40.13;25.03;;;18.20;99.90;;;;;;5015876;28;20314;-51
2022/08/19 05:22:47;;;;;;;40.43;26.27;;;18.10;99.90;;;;;;5019272;28;20213;-51
2022/08/19 05:25:19;;;;;;;40.27;26.17;;;18.20;99.90;;;;;;5014963;28;20213;-50
2022/08/19 05:27:47;;;;;;;41.77;26.73;;;18.20;99.90;;;;;;5022273;28;20198;-50
2022/08/19 05:30:15;;;;;;;40.47;26.17;;;18.20;99.90;;;;;;5021417;28;20295;-51
2022/08/19 05:32:42;;;;;;;40.50;26.80;;;18.10;99.90;;;;;;5021173;28;20249;-52
2022/08/19 05:35:09;;;;;;;39.53;26.17;;;18.10;99.90;;;;;;5021237;28;20232;-51
2022/08/19 05:37:36;;;;;;;43.63;27.07;;;17.90;99.90;;;;;;5020766;28;20688;-51
2022/08/19 05:40:04;;;;;;;41.03;27.27;;;17.90;99.90;;;;;;5020345;28;20206;-52
2022/08/19 05:42:31;;;;;;;38.80;25.40;;;17.90;99.90;;;;;;5020201;28;20251;-52
2022/08/19 05:44:58;;;;;;;41.10;26.83;;;17.80;99.90;;;;;;5020622;28;20201;-50
2022/08/19 05:47:25;;;;;;;43.83;26.73;;;18.00;99.90;;;;;;5019599;28;20707;-51
2022/08/19 05:49:52;;;;;;;44.50;27.97;;;18.10;99.90;;;;;;5020711;28;20217;-51
2022/08/19 05:52:19;;;;;;;43.33;27.67;;;18.00;99.90;;;;;;5020062;28;20236;-50
2022/08/19 05:54:54;;;;;;;42.27;26.27;;;18.10;99.90;;;;;;5020372;28;20331;-51
2022/08/19 05:57:22;;;;;;;38.47;26.03;;;18.30;99.90;;;;;;5020062;28;20220;-51
2022/08/19 05:59:51;;;;;;;41.27;27.33;;;18.30;99.90;;;;;;5020348;28;20208;-51
2022/08/19 06:02:24;;;;;;;43.60;27.47;;;18.30;99.90;;;;;;5010710;28;20237;-51
2022/08/19 06:04:51;;;;;;;43.07;26.37;;;18.20;99.90;;;;;;5019823;28;20208;-52
2022/08/19 06:07:19;;;;;;;42.10;27.53;;;18.40;99.90;;;;;;5020644;28;20649;-51
2022/08/19 06:09:46;;;;;;;40.57;26.73;;;18.20;99.90;;;;;;5016734;28;20205;-50
2022/08/19 06:12:28;;;;;;;43.57;26.97;;;18.20;99.90;;;;;;5020536;28;20211;-51
2022/08/19 06:14:55;;;;;;;42.37;27.53;;;18.30;99.90;;;;;;5020748;28;20201;-50
2022/08/19 06:17:29;;;;;;;39.23;25.20;;;18.30;99.90;;;;;;5018812;28;20224;-50
2022/08/19 06:19:58;;;;;;;37.50;25.83;;;18.40;99.90;;;;;;5019151;28;20210;-51
2022/08/19 06:22:24;;;;;;;40.73;26.13;;;18.30;99.90;;;;;;5019604;28;20549;-49
2022/08/19 06:24:53;;;;;;;38.33;25.60;;;18.50;99.90;;;;;;5020004;28;20296;-50
2022/08/19 06:27:21;;;;;;;40.47;26.33;;;18.70;99.90;;;;;;5016447;28;20223;-51
2022/08/19 06:29:48;;;;;;;40.33;23.97;;;18.70;99.90;;;;;;5017847;28;20251;-51
2022/08/19 06:32:17;;;;;;;41.50;24.00;;;18.70;99.90;;;;;;5018983;28;20237;-52
2022/08/19 06:34:44;;;;;;;42.63;23.67;;;18.50;99.90;;;;;;5019486;28;20634;-51
2022/08/19 06:37:11;;;;;;;47.13;25.57;;;18.40;99.90;;;;;;5019107;28;20204;-50
2022/08/19 06:39:40;;;;;;;41.30;24.17;;;18.30;99.90;;;;;;5019227;28;20247;-51
2022/08/19 06:42:11;;;;;;;41.00;24.47;;;18.40;99.90;;;;;;5019852;28;20205;-51
2022/08/19 06:44:40;;;;;;;41.93;24.70;;;18.60;99.90;;;;;;5019568;28;20204;-51
2022/08/19 06:47:15;;;;;;;42.70;24.00;;;18.60;99.90;;;;;;5019054;28;20232;-51
2022/08/19 06:50:00;;;;;;;40.60;23.73;;;18.60;99.90;;;;;;5020094;28;20297;-50
2022/08/19 06:52:33;;;;;;;42.17;25.17;;;18.60;99.90;;;;;;5017043;28;20198;-51
2022/08/19 06:55:03;;;;;;;44.50;25.93;;;18.50;99.90;;;;;;5019355;28;20232;-51
2022/08/19 06:57:32;;;;;;;41.77;26.03;;;18.50;99.90;;;;;;5018622;28;20261;-52
2022/08/19 07:00:00;;;;;;;42.07;25.23;;;18.40;99.90;;;;;;5019260;28;20307;-51
2022/08/19 07:02:27;;;;;;;39.57;24.27;;;18.30;99.90;;;;;;5017470;28;20322;-51
2022/08/19 07:04:53;;;;;;;39.13;25.27;;;18.20;99.90;;;;;;5019065;28;20210;-52
2022/08/19 07:07:21;;;;;;;47.00;26.23;;;18.20;99.90;;;;;;5018934;28;20203;-50
2022/08/19 07:09:50;;;;;;;41.87;25.63;;;18.20;99.90;;;;;;5016894;28;20286;-50
2022/08/19 07:12:27;;;;;;;40.83;25.30;;;18.20;99.90;;;;;;5019267;28;20201;-50
2022/08/19 07:14:57;;;;;;;39.00;22.97;;;18.20;99.90;;;;;;5020568;28;20247;-51
2022/08/19 07:17:25;;;;;;;36.10;23.17;;;18.30;99.90;;;;;;5019145;28;20233;-52
2022/08/19 07:19:52;;;;;;;41.20;23.60;;;18.50;99.90;;;;;;5019303;28;20232;-51
2022/08/19 07:22:22;;;;;;;47.07;24.77;;;18.30;99.90;;;;;;5014996;28;20220;-51
2022/08/19 07:24:50;;;;;;;36.83;22.07;;;18.30;99.90;;;;;;5018068;28;20243;-50
2022/08/19 07:27:19;;;;;;;35.93;20.83;;;18.40;99.90;;;;;;5018096;28;20245;-51
2022/08/19 07:29:52;;;;;;;45.77;25.03;;;18.40;99.90;;;;;;5018757;28;20209;-51
2022/08/19 07:32:26;;;;;;;41.13;24.30;;;18.20;99.90;;;;;;5018208;28;20204;-50
2022/08/19 07:34:53;;;;;;;46.10;26.13;;;18.10;99.90;;;;;;5012799;28;20195;-49
2022/08/19 07:37:23;;;;;;;44.37;23.77;;;18.20;99.90;;;;;;5015791;28;20232;-50
2022/08/19 07:39:56;;;;;;;43.93;24.87;;;18.20;99.90;;;;;;5018938;28;20207;-50
2022/08/19 07:42:23;;;;;;;53.83;25.70;;;18.40;99.90;;;;;;5016253;28;20566;-51
2022/08/19 07:44:50;;;;;;;57.53;26.23;;;18.40;99.90;;;;;;5013851;28;20279;-50
2022/08/19 07:47:18;;;;;;;42.47;24.90;;;18.40;99.90;;;;;;5018006;28;20383;-51
2022/08/19 07:50:08;;;;;;;48.37;25.80;;;18.40;99.90;;;;;;5018819;28;20273;-51
2022/08/19 07:52:38;;;;;;;51.83;27.37;;;18.50;99.90;;;;;;5017928;28;20203;-51
2022/08/19 07:55:07;;;;;;;47.60;26.73;;;18.60;99.90;;;;;;5019084;28;20240;-51
2022/08/19 07:57:54;;;;;;;50.20;27.73;;;18.60;99.90;;;;;;5019288;28;20722;-51
2022/08/19 08:00:21;;;;;;;41.40;24.93;;;18.60;99.90;;;;;;5016088;28;20558;-51
2022/08/19 08:02:50;;;;;;;46.20;25.93;;;18.80;99.90;;;;;;5015391;28;20638;-51
2022/08/19 08:10:54;;;;;;;40.40;25.43;;;18.90;99.90;;;;;;5022627;28;20210;-51
2022/08/19 08:13:24;;;;;;;39.17;24.27;;;19.00;99.90;;;;;;5022669;28;20203;-50
2022/08/19 08:15:52;;;;;;;37.60;23.77;;;18.80;99.90;;;;;;5022493;28;20211;-51
2022/08/19 08:18:23;;;;;;;39.10;23.97;;;18.80;99.90;;;;;;5021290;28;20257;-50
2022/08/19 08:20:56;;;;;;;43.93;25.73;;;18.90;99.90;;;;;;5022555;28;20294;-51
2022/08/19 08:23:26;;;;;;;36.50;22.73;;;18.90;99.90;;;;;;5022510;28;20299;-51
2022/08/19 08:25:55;;;;;;;33.17;21.87;;;19.10;99.90;;;;;;5022788;28;20233;-52
2022/08/19 08:28:26;;;;;;;34.90;22.33;;;18.90;99.90;;;;;;5016395;28;20207;-49
2022/08/19 08:30:56;;;;;;;30.97;21.60;;;19.00;99.90;;;;;;5022291;28;20238;-50
2022/08/19 08:33:25;;;;;;;41.03;22.73;;;19.00;99.90;;;;;;5021387;28;20208;-50
2022/08/19 08:36:10;;;;;;;41.13;23.87;;;19.10;99.90;;;;;;5021804;28;20259;-52
2022/08/19 08:38:38;;;;;;;41.77;24.43;;;19.00;99.90;;;;;;5021871;28;20221;-50
2022/08/19 08:41:27;;;;;;;43.20;25.87;;;19.10;99.90;;;;;;5021443;28;20676;-51
2022/08/19 08:43:56;;;;;;;38.27;24.40;;;19.10;99.90;;;;;;5021164;28;20263;-52
2022/08/19 08:46:39;;;;;;;36.70;23.97;;;19.20;99.90;;;;;;5021318;28;20793;-51
2022/08/19 08:49:23;;;;;;;38.73;25.60;;;19.30;99.90;;;;;;5019546;28;20269;-51
2022/08/19 08:52:05;;;;;;;38.37;23.77;;;19.30;99.90;;;;;;5021375;28;20209;-51
2022/08/19 08:54:42;;;;;;;35.20;23.53;;;19.60;99.90;;;;;;5021807;28;20225;-51
2022/08/19 08:57:38;;;;;;;32.57;22.00;;;19.80;99.90;;;;;;5021452;28;20266;-52
2022/08/19 09:00:16;;;;;;;34.40;21.13;;;19.80;99.90;;;;;;5020945;28;20205;-51
2022/08/19 09:02:44;;;;;;;33.73;21.77;;;19.90;99.90;;;;;;5020674;28;20359;-51
2022/08/19 09:05:20;;;;;;;34.97;21.43;;;19.80;99.90;;;;;;5021644;28;20647;-50
2022/08/19 09:08:44;;;;;;;32.33;21.87;;;20.00;99.90;;;;;;5019475;28;20204;-52
2022/08/19 09:11:40;;;;;;;31.90;21.80;;;20.10;99.90;;;;;;5005639;28;20212;-51
2022/08/19 09:14:20;;;;;;;33.23;22.07;;;20.20;99.90;;;;;;5020924;28;20239;-51
2022/08/19 09:17:11;;;;;;;31.50;22.27;;;20.00;99.90;;;;;;5020729;28;20300;-52
2022/08/19 09:19:53;;;;;;;31.80;21.93;;;20.00;99.90;;;;;;5021422;28;20221;-51
2022/08/19 09:22:23;;;;;;;33.53;22.50;;;20.00;99.90;;;;;;5021416;28;20243;-50
2022/08/19 09:24:53;;;;;;;32.37;22.10;;;19.90;99.90;;;;;;5020704;28;20209;-52
2022/08/19 09:27:23;;;;;;;34.13;23.67;;;19.90;99.90;;;;;;5021023;28;20211;-51
2022/08/19 09:30:11;;;;;;;38.50;23.37;;;19.80;99.90;;;;;;5020969;28;20557;-50
2022/08/19 09:32:42;;;;;;;32.10;23.97;;;20.00;99.90;;;;;;5020352;28;20208;-51
2022/08/19 09:35:09;;;;;;;33.33;23.40;;;20.10;99.90;;;;;;5020655;28;20237;-51
2022/08/19 09:37:36;;;;;;;28.57;21.50;;;20.20;99.90;;;;;;5019862;28;20205;-51
2022/08/19 09:40:04;;;;;;;34.07;22.67;;;20.10;99.90;;;;;;5021153;28;20256;-51
2022/08/19 09:42:31;;;;;;;30.63;21.33;;;20.10;99.90;;;;;;5034703;28;20213;-51
2022/08/19 09:45:02;;;;;;;29.07;20.67;;;20.00;99.90;;;;;;5021471;28;20220;-51
2022/08/19 09:47:37;;;;;;;28.17;20.47;;;20.00;99.90;;;;;;5019071;28;20222;-51
2022/08/19 09:50:08;;;;;;;28.87;19.77;;;20.00;99.90;;;;;;5020808;28;20223;-51
2022/08/19 09:52:36;;;;;;;29.80;21.40;;;20.10;99.90;;;;;;5021160;28;20718;-51
2022/08/19 09:55:09;;;;;;;26.57;20.03;;;20.00;99.90;;;;;;5002944;28;20233;-50
2022/08/19 09:57:37;;;;;;;31.03;21.77;;;20.00;99.90;;;;;;5020016;28;20248;-51
2022/08/19 10:00:07;;;;;;;30.30;21.57;;;20.00;99.90;;;;;;5020623;28;20258;-51
2022/08/19 10:02:35;;;;;;;32.40;22.27;;;20.00;99.90;;;;;;5019817;28;20295;-51
2022/08/19 10:07:52;;;;;;;32.67;23.07;;;20.30;99.90;;;;;;5020790;28;20220;-51
2022/08/19 10:10:22;;;;;;;32.50;22.43;;;20.30;99.90;;;;;;5019946;28;20291;-52
2022/08/19 10:12:50;;;;;;;31.10;21.40;;;20.40;99.90;;;;;;5019849;28;20243;-50
2022/08/19 10:15:20;;;;;;;35.47;22.90;;;20.60;99.90;;;;;;5019328;28;20795;-51
2022/08/19 10:17:55;;;;;;;33.50;22.83;;;20.70;99.90;;;;;;5018827;28;20216;-50
2022/08/19 10:20:24;;;;;;;27.70;22.23;;;20.60;99.90;;;;;;5019820;28;20300;-51
2022/08/19 10:22:51;;;;;;;36.30;23.73;;;20.60;99.90;;;;;;5017299;28;20573;-52
2022/08/19 10:25:19;;;;;;;33.47;22.77;;;20.60;99.90;;;;;;5019472;28;20686;-50
2022/08/19 10:27:45;;;;;;;34.77;23.93;;;20.70;99.90;;;;;;5017169;28;20283;-51
2022/08/19 10:30:21;;;;;;;36.37;22.93;;;20.90;4.10;;;;;;5020950;28;20212;-51
2022/08/19 10:32:50;;;;;;;32.47;23.90;;;20.80;1.00;;;;;;5018959;28;20209;-51
2022/08/19 10:35:18;;;;;;;34.07;23.70;;;20.90;99.90;;;;;;5020390;28;20696;-51
2022/08/19 10:37:48;;;;;;;35.43;25.00;;;20.90;1.00;;;;;;5019767;28;20710;-50
2022/08/19 10:40:27;;;;;;;36.57;24.43;;;21.00;99.90;;;;;;5048677;28;20307;-51
2022/08/19 10:42:55;;;;;;;40.47;24.90;;;21.00;1.00;;;;;;5019637;28;20628;-51
2022/08/19 10:45:25;;;;;;;38.00;25.17;;;21.20;99.90;;;;;;5019740;28;20231;-49
2022/08/19 10:47:53;;;;;;;33.60;25.00;;;21.40;1.00;;;;;;5018749;28;20216;-51
2022/08/19 10:53:08;;;;;;;33.57;25.20;;;21.70;1.00;;;;;;5019204;28;20566;-53
2022/08/19 10:58:25;;;;;;;33.63;23.77;;;21.90;1.00;;;;;;5019455;28;20612;-53
2022/08/19 11:00:56;;;;;;;37.03;23.53;;;22.20;96.90;;;;;;5019509;28;20290;-55
2022/08/19 11:03:24;;;;;;;34.67;23.33;;;22.00;97.60;;;;;;5018267;28;20708;-53
2022/08/19 11:06:00;;;;;;;30.60;22.47;;;22.20;31.70;;;;;;5014005;28;20236;-54
2022/08/19 11:08:27;;;;;;;29.90;21.67;;;22.30;1.00;;;;;;5018241;28;20271;-53
2022/08/19 11:11:00;;;;;;;29.50;21.33;;;22.70;1.00;;;;;;5018767;28;20201;-53
2022/08/19 11:13:28;;;;;;;31.13;22.70;;;22.80;1.00;;;;;;5019297;28;20195;-54
2022/08/19 11:16:10;;;;;;;30.57;21.57;;;22.80;99.90;;;;;;5019688;28;20205;-54
2022/08/19 11:18:38;;;;;;;32.87;22.70;;;22.80;99.90;;;;;;5014133;28;20221;-53
2022/08/19 11:21:12;;;;;;;29.07;19.97;;;22.80;1.00;;;;;;5018976;28;20258;-54
2022/08/19 11:23:40;;;;;;;25.57;21.13;;;22.50;99.90;;;;;;5018525;28;20559;-53
2022/08/19 11:26:06;;;;;;;27.47;21.37;;;23.40;1.00;;;;;;5017783;28;20200;-53
2022/08/19 11:28:33;;;;;;;29.40;22.63;;;23.70;1.00;;;;;;5013880;28;20240;-53
2022/08/19 11:31:03;;;;;;;33.10;23.90;;;24.00;99.90;;;;;;5018460;28;20716;-53
2022/08/19 11:33:31;;;;;;;27.63;20.67;;;24.00;99.90;;;;;;5020963;28;20227;-54
2022/08/19 11:35:59;;;;;;;36.17;23.33;;;24.10;1.00;;;;;;5016571;28;20263;-53
2022/08/19 11:38:27;;;;;;;30.43;21.80;;;23.80;99.90;;;;;;5022414;28;20677;-54
2022/08/19 11:40:59;;;;;;;27.93;21.00;;;24.50;1.00;;;;;;5021644;28;20295;-54
2022/08/19 11:43:26;;;;;;;25.60;18.40;;;24.80;1.00;;;;;;5023723;28;20208;-54
2022/08/19 11:45:55;;;;;;;23.07;19.10;;;25.70;99.90;;;;;;5023660;28;20215;-53
2022/08/19 11:48:22;;;;;;;25.83;20.30;;;26.10;35.40;;;;;;5022996;28;20216;-53
2022/08/19 11:50:50;;;;;;;28.33;20.13;;;25.70;99.90;;;;;;5022727;28;20252;-53
2022/08/19 11:53:19;;;;;;;24.93;18.67;;;25.50;1.00;;;;;;5018983;28;20657;-53
2022/08/19 11:55:55;;;;;;;26.20;19.50;;;25.30;99.90;;;;;;5021916;28;20225;-53
2022/08/19 11:58:24;;;;;;;27.10;19.67;;;24.60;1.00;;;;;;5022195;28;20557;-53
2022/08/19 12:00:52;;;;;;;22.67;18.67;;;24.40;1.00;;;;;;5022823;28;20212;-53
2022/08/19 12:03:19;;;;;;;25.17;18.43;;;24.50;1.00;;;;;;5022777;28;20232;-56
2022/08/19 12:05:46;;;;;;;29.70;20.13;;;24.40;1.00;;;;;;5022698;28;20327;-54
2022/08/19 12:08:13;;;;;;;22.43;17.70;;;24.40;1.00;;;;;;5009305;28;20244;-53
2022/08/19 12:10:48;;;;;;;22.41;16.26;;;24.30;1.00;;;;;;4924904;28;10001228;-54
2022/08/19 12:13:18;;;;;;;23.83;19.17;;;24.20;1.00;;;;;;5006002;28;20450;-53
2022/08/19 12:15:47;;;;;;;26.70;18.40;;;24.00;1.00;;;;;;5019118;28;20297;-53
2022/08/19 12:18:14;;;;;;;22.53;16.53;;;23.80;1.00;;;;;;5014316;28;20292;-51
2022/08/19 12:20:42;;;;;;;20.93;15.97;;;23.60;1.00;;;;;;5010042;28;20219;-52
2022/08/19 12:23:15;;;;;;;19.33;14.73;;;23.70;99.90;;;;;;5015767;28;20198;-53
2022/08/19 12:25:51;;;;;;;19.20;15.00;;;23.70;99.90;;;;;;5012458;28;20206;-53
2022/08/19 12:28:23;;;;;;;23.53;15.87;;;23.50;99.90;;;;;;5009175;28;20219;-52
2022/08/19 12:30:51;;;;;;;18.87;13.27;;;23.40;99.90;;;;;;5016222;28;20222;-52
2022/08/19 12:33:23;;;;;;;19.07;15.07;;;23.30;1.00;;;;;;5015497;28;20288;-53
2022/08/19 12:35:53;;;;;;;18.07;13.20;;;23.40;1.00;;;;;;5011598;28;20241;-53
2022/08/19 12:38:24;;;;;;;18.27;13.33;;;23.30;1.00;;;;;;5014288;28;20216;-53
2022/08/19 12:40:51;;;;;;;17.07;12.47;;;23.20;1.00;;;;;;5000865;28;20295;-52
2022/08/19 12:43:24;;;;;;;16.90;11.73;;;23.10;1.00;;;;;;5012334;28;20209;-52
2022/08/19 12:45:51;;;;;;;13.47;11.10;;;23.10;34.90;;;;;;5009916;28;20210;-51
2022/08/19 12:48:18;;;;;;;17.87;12.77;;;23.00;1.00;;;;;;5005279;28;20208;-53
2022/08/19 12:51:06;;;;;;;15.93;12.60;;;23.10;1.00;;;;;;5004579;28;20798;-52
2022/08/19 12:53:33;;;;;;;16.70;12.53;;;23.10;1.00;;;;;;5001235;28;20597;-52
2022/08/19 12:56:06;;;;;;;24.03;15.87;;;23.30;1.00;;;;;;5005780;28;20239;-52
2022/08/19 12:58:38;;;;;;;27.67;19.83;;;23.20;1.00;;;;;;4997344;28;20997;-52
2022/08/19 13:01:11;;;;;;;23.37;18.80;;;23.00;1.00;;;;;;5000736;28;20229;-52
2022/08/19 13:03:38;;;;;;;25.00;17.77;;;23.00;99.90;;;;;;5002489;28;20338;-52
2022/08/19 13:06:07;;;;;;;23.10;18.57;;;22.80;1.00;;;;;;5000355;28;20217;-52